Rockford, Indiana
Current Conditions -  °F | °C
As of 2:55 AM on Tuesday 21 Oct 2014 (Local Time) from KHHG Reporting Station
Broken Clouds Broken Clouds  
Wind Chill: 48°   Ceiling: 6000
Heat Index: 48°   Visibility: 10mi
Dew Point: 44°   Wind: 3mph
Humidity: 86%   Direction: 310°NW
Pressure: 29.95"   Gusts: NA
Location:  40.7175°N, 85.1549°W
Report Text: KHHG 210655Z AUTO 31003KT 10SM BKN060 09/07 A2995 RMK AO2 T00910069
Loading
Personal Weather Stations






























Interactive Weather Map
Tropical Storm Tracking
New forecast layout! Learn more

10-Day Weather Forecast

Advertisements
Track Severe Weather on mobile